sensor_id;sensor_type;location;lat;lon;timestamp;temperature;humidity
60234;DHT22;49514;43.538;-5.708;2023-04-15T00:00:58;15.50;99.90
60234;DHT22;49514;43.538;-5.708;2023-04-15T00:03:25;15.50;99.90
60234;DHT22;49514;43.538;-5.708;2023-04-15T00:05:51;15.50;99.90
60234;DHT22;49514;43.538;-5.708;2023-04-15T00:08:18;15.50;99.90
60234;DHT22;49514;43.538;-5.708;2023-04-15T00:10:45;15.50;99.90
60234;DHT22;49514;43.538;-5.708;2023-04-15T00:13:12;15.50;99.90
60234;DHT22;49514;43.538;-5.708;2023-04-15T00:15:38;15.40;99.90
60234;DHT22;49514;43.538;-5.708;2023-04-15T00:18:05;15.40;99.90
60234;DHT22;49514;43.538;-5.708;2023-04-15T00:20:33;15.40;99.90
60234;DHT22;49514;43.538;-5.708;2023-04-15T00:23:00;15.30;99.90
60234;DHT22;49514;43.538;-5.708;2023-04-15T00:25:27;15.30;99.90
60234;DHT22;49514;43.538;-5.708;2023-04-15T00:27:54;15.30;99.90
60234;DHT22;49514;43.538;-5.708;2023-04-15T00:30:20;15.30;99.90
60234;DHT22;49514;43.538;-5.708;2023-04-15T00:32:47;15.20;99.90
60234;DHT22;49514;43.538;-5.708;2023-04-15T00:35:17;15.20;99.90
60234;DHT22;49514;43.538;-5.708;2023-04-15T00:37:44;15.20;99.90
60234;DHT22;49514;43.538;-5.708;2023-04-15T00:40:11;15.10;99.90
60234;DHT22;49514;43.538;-5.708;2023-04-15T00:42:38;15.20;99.90
60234;DHT22;49514;43.538;-5.708;2023-04-15T00:45:05;15.10;99.90
60234;DHT22;49514;43.538;-5.708;2023-04-15T00:47:32;15.10;99.90
60234;DHT22;49514;43.538;-5.708;2023-04-15T00:49:58;15.10;99.90
60234;DHT22;49514;43.538;-5.708;2023-04-15T00:52:25;15.10;99.90
60234;DHT22;49514;43.538;-5.708;2023-04-15T00:54:52;15.10;99.90
60234;DHT22;49514;43.538;-5.708;2023-04-15T00:57:20;15.10;99.90
60234;DHT22;49514;43.538;-5.708;2023-04-15T00:59:48;15.20;99.90
60234;DHT22;49514;43.538;-5.708;2023-04-15T01:02:14;15.20;99.90
60234;DHT22;49514;43.538;-5.708;2023-04-15T01:04:41;15.10;99.90
60234;DHT22;49514;43.538;-5.708;2023-04-15T01:07:08;15.10;99.90
60234;DHT22;49514;43.538;-5.708;2023-04-15T01:09:34;15.10;99.90
60234;DHT22;49514;43.538;-5.708;2023-04-15T01:12:00;15.10;99.90
60234;DHT22;49514;43.538;-5.708;2023-04-15T01:14:27;15.10;99.90
60234;DHT22;49514;43.538;-5.708;2023-04-15T01:16:54;15.00;99.90
60234;DHT22;49514;43.538;-5.708;2023-04-15T01:19:20;15.00;99.90
60234;DHT22;49514;43.538;-5.708;2023-04-15T01:21:47;15.00;99.90
60234;DHT22;49514;43.538;-5.708;2023-04-15T01:24:13;15.00;99.90
60234;DHT22;49514;43.538;-5.708;2023-04-15T01:26:42;14.90;99.90
60234;DHT22;49514;43.538;-5.708;2023-04-15T01:29:09;14.90;99.90
60234;DHT22;49514;43.538;-5.708;2023-04-15T01:31:35;14.90;99.90
60234;DHT22;49514;43.538;-5.708;2023-04-15T01:34:20;14.80;99.90
60234;DHT22;49514;43.538;-5.708;2023-04-15T01:37:05;14.80;99.90
60234;DHT22;49514;43.538;-5.708;2023-04-15T01:39:32;14.80;99.90
60234;DHT22;49514;43.538;-5.708;2023-04-15T01:41:58;14.80;99.90
60234;DHT22;49514;43.538;-5.708;2023-04-15T01:44:26;14.80;99.90
60234;DHT22;49514;43.538;-5.708;2023-04-15T01:46:54;14.80;99.90
60234;DHT22;49514;43.538;-5.708;2023-04-15T01:49:21;14.80;99.90
60234;DHT22;49514;43.538;-5.708;2023-04-15T01:51:49;14.80;99.90
60234;DHT22;49514;43.538;-5.708;2023-04-15T01:54:17;14.80;99.90
60234;DHT22;49514;43.538;-5.708;2023-04-15T01:56:45;14.70;99.90
60234;DHT22;49514;43.538;-5.708;2023-04-15T01:59:13;14.70;99.90
60234;DHT22;49514;43.538;-5.708;2023-04-15T02:01:40;14.70;99.90
60234;DHT22;49514;43.538;-5.708;2023-04-15T02:04:08;14.70;99.90
60234;DHT22;49514;43.538;-5.708;2023-04-15T02:06:42;14.70;99.90
60234;DHT22;49514;43.538;-5.708;2023-04-15T02:09:10;14.70;99.90
60234;DHT22;49514;43.538;-5.708;2023-04-15T02:11:38;14.70;99.90
60234;DHT22;49514;43.538;-5.708;2023-04-15T02:14:06;14.70;99.90
60234;DHT22;49514;43.538;-5.708;2023-04-15T02:16:33;14.70;99.90
60234;DHT22;49514;43.538;-5.708;2023-04-15T02:19:01;14.70;99.90
60234;DHT22;49514;43.538;-5.708;2023-04-15T02:21:30;14.70;99.90
60234;DHT22;49514;43.538;-5.708;2023-04-15T02:23:58;14.70;99.90
60234;DHT22;49514;43.538;-5.708;2023-04-15T02:26:25;14.70;99.90
60234;DHT22;49514;43.538;-5.708;2023-04-15T02:28:55;14.70;99.90
60234;DHT22;49514;43.538;-5.708;2023-04-15T02:31:22;14.70;99.90
60234;DHT22;49514;43.538;-5.708;2023-04-15T02:33:50;14.70;99.90
60234;DHT22;49514;43.538;-5.708;2023-04-15T02:36:17;14.80;99.90
60234;DHT22;49514;43.538;-5.708;2023-04-15T02:38:47;14.80;99.90
60234;DHT22;49514;43.538;-5.708;2023-04-15T02:41:16;14.90;99.90
60234;DHT22;49514;43.538;-5.708;2023-04-15T02:43:46;14.90;99.90
60234;DHT22;49514;43.538;-5.708;2023-04-15T02:46:15;14.90;99.90
60234;DHT22;49514;43.538;-5.708;2023-04-15T02:48:43;14.90;99.90
60234;DHT22;49514;43.538;-5.708;2023-04-15T02:51:11;14.80;99.90
60234;DHT22;49514;43.538;-5.708;2023-04-15T02:53:39;14.80;99.90
60234;DHT22;49514;43.538;-5.708;2023-04-15T02:56:08;14.90;99.90
60234;DHT22;49514;43.538;-5.708;2023-04-15T02:58:35;14.90;99.90
60234;DHT22;49514;43.538;-5.708;2023-04-15T03:01:03;14.90;99.90
60234;DHT22;49514;43.538;-5.708;2023-04-15T03:03:31;14.90;99.90
60234;DHT22;49514;43.538;-5.708;2023-04-15T03:05:59;14.90;99.90
60234;DHT22;49514;43.538;-5.708;2023-04-15T03:08:27;14.90;99.90
60234;DHT22;49514;43.538;-5.708;2023-04-15T03:10:59;14.80;99.90
60234;DHT22;49514;43.538;-5.708;2023-04-15T03:13:29;14.80;99.90
60234;DHT22;49514;43.538;-5.708;2023-04-15T03:15:58;14.80;99.90
60234;DHT22;49514;43.538;-5.708;2023-04-15T03:18:26;14.80;99.90
60234;DHT22;49514;43.538;-5.708;2023-04-15T03:20:55;14.80;99.90
60234;DHT22;49514;43.538;-5.708;2023-04-15T03:23:24;14.70;99.90
60234;DHT22;49514;43.538;-5.708;2023-04-15T03:25:52;14.70;99.90
60234;DHT22;49514;43.538;-5.708;2023-04-15T03:28:23;14.70;99.90
60234;DHT22;49514;43.538;-5.708;2023-04-15T03:30:51;14.70;99.90
60234;DHT22;49514;43.538;-5.708;2023-04-15T03:33:19;14.70;99.90
60234;DHT22;49514;43.538;-5.708;2023-04-15T03:35:46;14.70;99.90
60234;DHT22;49514;43.538;-5.708;2023-04-15T03:38:14;14.70;99.90
60234;DHT22;49514;43.538;-5.708;2023-04-15T03:40:42;14.70;99.90
60234;DHT22;49514;43.538;-5.708;2023-04-15T03:43:09;14.70;99.90
60234;DHT22;49514;43.538;-5.708;2023-04-15T03:45:37;14.70;99.90
60234;DHT22;49514;43.538;-5.708;2023-04-15T03:48:06;14.90;99.90
60234;DHT22;49514;43.538;-5.708;2023-04-15T03:50:34;14.70;99.90
60234;DHT22;49514;43.538;-5.708;2023-04-15T03:53:02;14.70;99.90
60234;DHT22;49514;43.538;-5.708;2023-04-15T03:55:29;14.70;99.90
60234;DHT22;49514;43.538;-5.708;2023-04-15T03:57:57;14.70;99.90
60234;DHT22;49514;43.538;-5.708;2023-04-15T04:00:25;14.70;99.90
60234;DHT22;49514;43.538;-5.708;2023-04-15T04:02:52;14.70;99.90
60234;DHT22;49514;43.538;-5.708;2023-04-15T04:05:20;14.70;99.90
60234;DHT22;49514;43.538;-5.708;2023-04-15T04:07:47;14.70;99.90
60234;DHT22;49514;43.538;-5.708;2023-04-15T04:10:15;14.70;99.90
60234;DHT22;49514;43.538;-5.708;2023-04-15T04:17:38;14.70;99.90
60234;DHT22;49514;43.538;-5.708;2023-04-15T04:20:07;14.80;99.90
60234;DHT22;49514;43.538;-5.708;2023-04-15T04:22:38;14.80;99.90
60234;DHT22;49514;43.538;-5.708;2023-04-15T04:25:09;14.80;99.90
60234;DHT22;49514;43.538;-5.708;2023-04-15T04:27:37;14.80;99.90
60234;DHT22;49514;43.538;-5.708;2023-04-15T04:30:05;14.70;99.90
60234;DHT22;49514;43.538;-5.708;2023-04-15T04:32:33;14.70;99.90
60234;DHT22;49514;43.538;-5.708;2023-04-15T04:35:00;14.70;99.90
60234;DHT22;49514;43.538;-5.708;2023-04-15T04:37:28;14.70;99.90
60234;DHT22;49514;43.538;-5.708;2023-04-15T04:39:56;14.70;99.90
60234;DHT22;49514;43.538;-5.708;2023-04-15T04:42:23;14.70;99.90
60234;DHT22;49514;43.538;-5.708;2023-04-15T04:44:51;14.60;99.90
60234;DHT22;49514;43.538;-5.708;2023-04-15T04:47:19;14.60;99.90
60234;DHT22;49514;43.538;-5.708;2023-04-15T04:49:46;14.60;99.90
60234;DHT22;49514;43.538;-5.708;2023-04-15T04:52:14;14.60;99.90
60234;DHT22;49514;43.538;-5.708;2023-04-15T04:54:42;14.60;99.90
60234;DHT22;49514;43.538;-5.708;2023-04-15T04:57:10;14.60;99.90
60234;DHT22;49514;43.538;-5.708;2023-04-15T04:59:39;14.60;99.90
60234;DHT22;49514;43.538;-5.708;2023-04-15T05:02:07;14.60;99.90
60234;DHT22;49514;43.538;-5.708;2023-04-15T05:04:35;14.60;99.90
60234;DHT22;49514;43.538;-5.708;2023-04-15T05:07:03;14.50;99.90
60234;DHT22;49514;43.538;-5.708;2023-04-15T05:09:30;14.50;99.90
60234;DHT22;49514;43.538;-5.708;2023-04-15T05:11:59;14.50;99.90
60234;DHT22;49514;43.538;-5.708;2023-04-15T05:14:27;14.50;99.90
60234;DHT22;49514;43.538;-5.708;2023-04-15T05:16:55;14.50;99.90
60234;DHT22;49514;43.538;-5.708;2023-04-15T05:19:23;14.50;99.90
60234;DHT22;49514;43.538;-5.708;2023-04-15T05:21:50;14.50;99.90
60234;DHT22;49514;43.538;-5.708;2023-04-15T05:24:18;14.50;99.90
60234;DHT22;49514;43.538;-5.708;2023-04-15T05:26:46;14.50;99.90
60234;DHT22;49514;43.538;-5.708;2023-04-15T05:29:14;14.50;99.90
60234;DHT22;49514;43.538;-5.708;2023-04-15T05:31:41;14.50;99.90
60234;DHT22;49514;43.538;-5.708;2023-04-15T05:34:09;14.50;99.90
60234;DHT22;49514;43.538;-5.708;2023-04-15T05:36:38;14.50;99.90
60234;DHT22;49514;43.538;-5.708;2023-04-15T05:39:06;14.50;99.90
60234;DHT22;49514;43.538;-5.708;2023-04-15T05:41:34;14.50;99.90
60234;DHT22;49514;43.538;-5.708;2023-04-15T05:44:02;14.50;99.90
60234;DHT22;49514;43.538;-5.708;2023-04-15T05:46:30;14.50;99.90
60234;DHT22;49514;43.538;-5.708;2023-04-15T05:48:57;14.50;99.90
60234;DHT22;49514;43.538;-5.708;2023-04-15T05:51:25;14.60;99.90
60234;DHT22;49514;43.538;-5.708;2023-04-15T05:53:53;14.60;99.90
60234;DHT22;49514;43.538;-5.708;2023-04-15T05:56:21;14.60;99.90
60234;DHT22;49514;43.538;-5.708;2023-04-15T05:58:48;14.60;99.90
60234;DHT22;49514;43.538;-5.708;2023-04-15T06:01:16;14.60;99.90
60234;DHT22;49514;43.538;-5.708;2023-04-15T06:03:44;14.60;99.90
60234;DHT22;49514;43.538;-5.708;2023-04-15T06:06:11;14.60;99.90
60234;DHT22;49514;43.538;-5.708;2023-04-15T06:08:40;14.70;99.90
60234;DHT22;49514;43.538;-5.708;2023-04-15T06:11:07;14.70;99.90
60234;DHT22;49514;43.538;-5.708;2023-04-15T06:13:35;14.70;99.90
60234;DHT22;49514;43.538;-5.708;2023-04-15T06:16:02;14.70;99.90
60234;DHT22;49514;43.538;-5.708;2023-04-15T06:18:30;14.70;99.90
60234;DHT22;49514;43.538;-5.708;2023-04-15T06:20:58;14.70;99.90
60234;DHT22;49514;43.538;-5.708;2023-04-15T06:23:25;14.80;99.90
60234;DHT22;49514;43.538;-5.708;2023-04-15T06:25:53;14.80;99.90
60234;DHT22;49514;43.538;-5.708;2023-04-15T06:28:21;14.80;99.90
60234;DHT22;49514;43.538;-5.708;2023-04-15T06:30:48;14.80;99.90
60234;DHT22;49514;43.538;-5.708;2023-04-15T06:33:16;14.90;99.90
60234;DHT22;49514;43.538;-5.708;2023-04-15T06:35:44;15.00;99.90
60234;DHT22;49514;43.538;-5.708;2023-04-15T06:38:11;15.00;99.90
60234;DHT22;49514;43.538;-5.708;2023-04-15T06:40:40;15.10;99.90
60234;DHT22;49514;43.538;-5.708;2023-04-15T06:43:08;15.10;99.90
60234;DHT22;49514;43.538;-5.708;2023-04-15T06:45:36;15.10;99.90
60234;DHT22;49514;43.538;-5.708;2023-04-15T06:48:04;15.10;99.90
60234;DHT22;49514;43.538;-5.708;2023-04-15T06:50:32;15.20;99.90
60234;DHT22;49514;43.538;-5.708;2023-04-15T06:53:00;15.30;99.90
60234;DHT22;49514;43.538;-5.708;2023-04-15T06:55:27;15.30;99.90
60234;DHT22;49514;43.538;-5.708;2023-04-15T06:57:55;15.30;99.90
60234;DHT22;49514;43.538;-5.708;2023-04-15T07:00:23;15.40;99.90
60234;DHT22;49514;43.538;-5.708;2023-04-15T07:02:51;15.40;99.90
60234;DHT22;49514;43.538;-5.708;2023-04-15T07:05:19;15.50;99.90
60234;DHT22;49514;43.538;-5.708;2023-04-15T07:07:47;15.40;99.90
60234;DHT22;49514;43.538;-5.708;2023-04-15T07:10:15;15.50;99.90
60234;DHT22;49514;43.538;-5.708;2023-04-15T07:12:43;15.60;99.90
60234;DHT22;49514;43.538;-5.708;2023-04-15T07:15:10;15.60;99.90
60234;DHT22;49514;43.538;-5.708;2023-04-15T07:17:40;15.70;99.90
60234;DHT22;49514;43.538;-5.708;2023-04-15T07:20:09;15.80;99.90
60234;DHT22;49514;43.538;-5.708;2023-04-15T07:22:37;16.00;99.90
60234;DHT22;49514;43.538;-5.708;2023-04-15T07:25:05;16.00;99.90
60234;DHT22;49514;43.538;-5.708;2023-04-15T07:27:33;16.40;99.90
60234;DHT22;49514;43.538;-5.708;2023-04-15T07:30:01;16.20;99.90
60234;DHT22;49514;43.538;-5.708;2023-04-15T07:32:28;16.40;99.90
60234;DHT22;49514;43.538;-5.708;2023-04-15T07:34:56;16.50;99.90
60234;DHT22;49514;43.538;-5.708;2023-04-15T07:37:24;16.50;99.90
60234;DHT22;49514;43.538;-5.708;2023-04-15T07:39:52;16.70;99.90
60234;DHT22;49514;43.538;-5.708;2023-04-15T07:42:20;16.80;99.90
60234;DHT22;49514;43.538;-5.708;2023-04-15T07:44:47;16.80;99.90
60234;DHT22;49514;43.538;-5.708;2023-04-15T07:47:15;16.90;99.90
60234;DHT22;49514;43.538;-5.708;2023-04-15T07:49:43;17.00;99.90
60234;DHT22;49514;43.538;-5.708;2023-04-15T07:52:10;17.20;99.90
60234;DHT22;49514;43.538;-5.708;2023-04-15T07:54:38;17.30;99.90
60234;DHT22;49514;43.538;-5.708;2023-04-15T07:57:06;17.40;99.90
60234;DHT22;49514;43.538;-5.708;2023-04-15T07:59:34;17.50;99.90
60234;DHT22;49514;43.538;-5.708;2023-04-15T08:02:02;17.50;99.90
60234;DHT22;49514;43.538;-5.708;2023-04-15T08:04:30;17.60;99.90
60234;DHT22;49514;43.538;-5.708;2023-04-15T08:06:58;17.70;99.90
60234;DHT22;49514;43.538;-5.708;2023-04-15T08:09:26;17.80;99.90
60234;DHT22;49514;43.538;-5.708;2023-04-15T08:11:54;17.90;99.90
60234;DHT22;49514;43.538;-5.708;2023-04-15T08:14:23;18.00;99.90
60234;DHT22;49514;43.538;-5.708;2023-04-15T08:16:52;18.20;99.90
60234;DHT22;49514;43.538;-5.708;2023-04-15T08:19:20;18.40;99.90
60234;DHT22;49514;43.538;-5.708;2023-04-15T08:21:48;18.50;99.90
60234;DHT22;49514;43.538;-5.708;2023-04-15T08:24:16;18.50;99.90
60234;DHT22;49514;43.538;-5.708;2023-04-15T08:26:43;18.60;99.90
60234;DHT22;49514;43.538;-5.708;2023-04-15T08:29:11;18.50;99.90
60234;DHT22;49514;43.538;-5.708;2023-04-15T08:31:39;18.50;99.90
60234;DHT22;49514;43.538;-5.708;2023-04-15T08:34:07;18.60;99.90
60234;DHT22;49514;43.538;-5.708;2023-04-15T08:36:35;18.70;99.90
60234;DHT22;49514;43.538;-5.708;2023-04-15T08:39:03;18.60;99.90
60234;DHT22;49514;43.538;-5.708;2023-04-15T08:41:42;18.50;99.90
60234;DHT22;49514;43.538;-5.708;2023-04-15T08:44:12;18.50;99.90
60234;DHT22;49514;43.538;-5.708;2023-04-15T08:46:40;18.50;99.90
60234;DHT22;49514;43.538;-5.708;2023-04-15T08:49:11;18.60;99.90
60234;DHT22;49514;43.538;-5.708;2023-04-15T08:51:40;18.60;99.90
60234;DHT22;49514;43.538;-5.708;2023-04-15T08:54:08;18.70;99.90
60234;DHT22;49514;43.538;-5.708;2023-04-15T08:56:37;19.00;99.90
60234;DHT22;49514;43.538;-5.708;2023-04-15T08:59:05;18.90;99.90
60234;DHT22;49514;43.538;-5.708;2023-04-15T09:01:33;19.10;99.90
60234;DHT22;49514;43.538;-5.708;2023-04-15T09:04:01;19.30;99.90
60234;DHT22;49514;43.538;-5.708;2023-04-15T09:06:29;19.40;99.90
60234;DHT22;49514;43.538;-5.708;2023-04-15T09:08:57;19.50;99.90
60234;DHT22;49514;43.538;-5.708;2023-04-15T09:11:25;19.60;99.90
60234;DHT22;49514;43.538;-5.708;2023-04-15T09:13:53;19.90;99.90
60234;DHT22;49514;43.538;-5.708;2023-04-15T09:16:21;19.60;99.90
60234;DHT22;49514;43.538;-5.708;2023-04-15T09:18:50;19.50;99.90
60234;DHT22;49514;43.538;-5.708;2023-04-15T09:21:18;19.40;99.90
60234;DHT22;49514;43.538;-5.708;2023-04-15T09:23:59;19.20;99.90
60234;DHT22;49514;43.538;-5.708;2023-04-15T09:26:33;19.30;99.90
60234;DHT22;49514;43.538;-5.708;2023-04-15T09:29:10;19.30;99.90
60234;DHT22;49514;43.538;-5.708;2023-04-15T09:31:40;19.20;99.90
60234;DHT22;49514;43.538;-5.708;2023-04-15T09:34:09;19.20;99.90
60234;DHT22;49514;43.538;-5.708;2023-04-15T09:39:13;19.40;99.90
60234;DHT22;49514;43.538;-5.708;2023-04-15T09:41:41;19.30;99.90
60234;DHT22;49514;43.538;-5.708;2023-04-15T09:44:25;19.60;99.90
60234;DHT22;49514;43.538;-5.708;2023-04-15T09:46:53;19.60;99.90
60234;DHT22;49514;43.538;-5.708;2023-04-15T09:49:21;19.40;99.90
60234;DHT22;49514;43.538;-5.708;2023-04-15T09:51:49;19.30;99.90
60234;DHT22;49514;43.538;-5.708;2023-04-15T09:54:20;19.30;99.90
60234;DHT22;49514;43.538;-5.708;2023-04-15T09:56:47;19.20;99.90
60234;DHT22;49514;43.538;-5.708;2023-04-15T09:59:16;19.30;99.90
60234;DHT22;49514;43.538;-5.708;2023-04-15T10:01:44;19.40;99.90
60234;DHT22;49514;43.538;-5.708;2023-04-15T10:04:12;19.70;99.90
60234;DHT22;49514;43.538;-5.708;2023-04-15T10:06:40;19.90;99.90
60234;DHT22;49514;43.538;-5.708;2023-04-15T10:09:08;19.80;99.90
60234;DHT22;49514;43.538;-5.708;2023-04-15T10:11:35;19.80;99.90
60234;DHT22;49514;43.538;-5.708;2023-04-15T10:14:03;19.60;99.90
60234;DHT22;49514;43.538;-5.708;2023-04-15T10:16:32;19.60;99.90
60234;DHT22;49514;43.538;-5.708;2023-04-15T10:19:01;19.40;99.90
60234;DHT22;49514;43.538;-5.708;2023-04-15T10:21:30;19.40;99.90
60234;DHT22;49514;43.538;-5.708;2023-04-15T10:23:58;19.40;99.90
60234;DHT22;49514;43.538;-5.708;2023-04-15T10:26:27;19.50;99.90
60234;DHT22;49514;43.538;-5.708;2023-04-15T10:28:55;19.60;99.90
60234;DHT22;49514;43.538;-5.708;2023-04-15T10:31:23;19.70;99.90
60234;DHT22;49514;43.538;-5.708;2023-04-15T10:33:52;19.70;99.90
60234;DHT22;49514;43.538;-5.708;2023-04-15T10:36:19;19.90;99.90
60234;DHT22;49514;43.538;-5.708;2023-04-15T10:38:47;20.00;99.90
60234;DHT22;49514;43.538;-5.708;2023-04-15T10:41:19;20.30;99.90
60234;DHT22;49514;43.538;-5.708;2023-04-15T10:43:48;20.40;99.90
60234;DHT22;49514;43.538;-5.708;2023-04-15T10:48:51;20.70;99.90
60234;DHT22;49514;43.538;-5.708;2023-04-15T10:51:28;20.90;99.90
60234;DHT22;49514;43.538;-5.708;2023-04-15T10:53:59;21.00;99.90
60234;DHT22;49514;43.538;-5.708;2023-04-15T10:56:28;21.20;99.90
60234;DHT22;49514;43.538;-5.708;2023-04-15T10:58:59;21.30;99.90
60234;DHT22;49514;43.538;-5.708;2023-04-15T11:04:14;21.80;99.40
60234;DHT22;49514;43.538;-5.708;2023-04-15T11:06:44;21.90;98.40
60234;DHT22;49514;43.538;-5.708;2023-04-15T11:09:31;22.10;98.20
60234;DHT22;49514;43.538;-5.708;2023-04-15T11:12:09;22.00;97.30
60234;DHT22;49514;43.538;-5.708;2023-04-15T11:14:39;22.10;97.40
60234;DHT22;49514;43.538;-5.708;2023-04-15T11:17:08;22.10;96.80
60234;DHT22;49514;43.538;-5.708;2023-04-15T11:19:37;22.20;96.40
60234;DHT22;49514;43.538;-5.708;2023-04-15T11:22:06;22.30;97.20
60234;DHT22;49514;43.538;-5.708;2023-04-15T11:24:34;22.20;96.20
60234;DHT22;49514;43.538;-5.708;2023-04-15T11:27:02;22.00;96.60
60234;DHT22;49514;43.538;-5.708;2023-04-15T11:29:30;22.00;96.70
60234;DHT22;49514;43.538;-5.708;2023-04-15T11:32:05;21.90;96.90
60234;DHT22;49514;43.538;-5.708;2023-04-15T11:34:33;21.80;96.10
60234;DHT22;49514;43.538;-5.708;2023-04-15T11:37:04;21.70;95.50
60234;DHT22;49514;43.538;-5.708;2023-04-15T11:39:32;21.90;96.10
60234;DHT22;49514;43.538;-5.708;2023-04-15T11:42:00;22.10;95.80
60234;DHT22;49514;43.538;-5.708;2023-04-15T11:44:28;22.00;97.00
60234;DHT22;49514;43.538;-5.708;2023-04-15T11:46:56;22.00;97.10
60234;DHT22;49514;43.538;-5.708;2023-04-15T11:49:27;22.10;97.20
60234;DHT22;49514;43.538;-5.708;2023-04-15T11:51:54;21.90;95.60
60234;DHT22;49514;43.538;-5.708;2023-04-15T11:54:20;21.80;97.30
60234;DHT22;49514;43.538;-5.708;2023-04-15T11:56:50;21.70;96.40
60234;DHT22;49514;43.538;-5.708;2023-04-15T11:59:17;21.60;96.50
60234;DHT22;49514;43.538;-5.708;2023-04-15T12:01:44;21.40;96.10
60234;DHT22;49514;43.538;-5.708;2023-04-15T12:04:13;21.10;96.10
60234;DHT22;49514;43.538;-5.708;2023-04-15T12:06:40;21.10;96.90
60234;DHT22;49514;43.538;-5.708;2023-04-15T12:14:06;21.00;96.80
60234;DHT22;49514;43.538;-5.708;2023-04-15T12:16:40;21.00;96.60
60234;DHT22;49514;43.538;-5.708;2023-04-15T12:19:10;21.10;96.50
60234;DHT22;49514;43.538;-5.708;2023-04-15T12:21:40;21.30;96.20
60234;DHT22;49514;43.538;-5.708;2023-04-15T12:24:08;21.60;96.20
60234;DHT22;49514;43.538;-5.708;2023-04-15T12:26:42;21.80;95.40
60234;DHT22;49514;43.538;-5.708;2023-04-15T12:29:09;22.00;94.70
60234;DHT22;49514;43.538;-5.708;2023-04-15T12:31:37;22.10;95.00
60234;DHT22;49514;43.538;-5.708;2023-04-15T12:34:12;22.00;94.70
60234;DHT22;49514;43.538;-5.708;2023-04-15T12:36:39;21.80;94.90
60234;DHT22;49514;43.538;-5.708;2023-04-15T12:39:06;21.60;95.30
60234;DHT22;49514;43.538;-5.708;2023-04-15T12:41:32;21.50;95.60
60234;DHT22;49514;43.538;-5.708;2023-04-15T12:43:59;21.30;95.80
60234;DHT22;49514;43.538;-5.708;2023-04-15T12:46:26;21.10;95.60
60234;DHT22;49514;43.538;-5.708;2023-04-15T12:48:53;21.00;96.30
60234;DHT22;49514;43.538;-5.708;2023-04-15T12:51:20;20.90;96.50
60234;DHT22;49514;43.538;-5.708;2023-04-15T12:53:47;20.90;96.70
60234;DHT22;49514;43.538;-5.708;2023-04-15T12:56:15;20.80;97.00
60234;DHT22;49514;43.538;-5.708;2023-04-15T12:58:42;20.80;97.50
60234;DHT22;49514;43.538;-5.708;2023-04-15T13:01:09;20.90;97.30
60234;DHT22;49514;43.538;-5.708;2023-04-15T13:03:36;20.90;97.40
60234;DHT22;49514;43.538;-5.708;2023-04-15T13:06:03;21.00;97.50
60234;DHT22;49514;43.538;-5.708;2023-04-15T13:08:31;21.00;97.20
60234;DHT22;49514;43.538;-5.708;2023-04-15T13:10:57;21.20;97.20
60234;DHT22;49514;43.538;-5.708;2023-04-15T13:13:24;21.40;97.20
60234;DHT22;49514;43.538;-5.708;2023-04-15T13:15:52;21.70;97.70
60234;DHT22;49514;43.538;-5.708;2023-04-15T13:18:19;22.10;97.00
60234;DHT22;49514;43.538;-5.708;2023-04-15T13:20:46;22.60;96.90
60234;DHT22;49514;43.538;-5.708;2023-04-15T13:23:13;23.20;95.80
60234;DHT22;49514;43.538;-5.708;2023-04-15T13:25:40;23.80;95.70
60234;DHT22;49514;43.538;-5.708;2023-04-15T13:28:12;24.30;94.30
60234;DHT22;49514;43.538;-5.708;2023-04-15T13:30:38;24.60;94.20
60234;DHT22;49514;43.538;-5.708;2023-04-15T13:33:06;25.10;94.40
60234;DHT22;49514;43.538;-5.708;2023-04-15T13:35:32;25.40;94.00
60234;DHT22;49514;43.538;-5.708;2023-04-15T13:37:59;25.80;93.40
60234;DHT22;49514;43.538;-5.708;2023-04-15T13:40:26;26.10;91.90
60234;DHT22;49514;43.538;-5.708;2023-04-15T13:42:53;26.00;91.50
60234;DHT22;49514;43.538;-5.708;2023-04-15T13:45:20;25.80;91.30
60234;DHT22;49514;43.538;-5.708;2023-04-15T13:47:47;25.60;90.80
60234;DHT22;49514;43.538;-5.708;2023-04-15T13:50:13;25.50;91.40
60234;DHT22;49514;43.538;-5.708;2023-04-15T13:52:40;25.30;90.60
60234;DHT22;49514;43.538;-5.708;2023-04-15T13:55:07;25.10;90.70
60234;DHT22;49514;43.538;-5.708;2023-04-15T13:57:34;25.00;91.50
60234;DHT22;49514;43.538;-5.708;2023-04-15T14:00:02;25.10;90.90
60234;DHT22;49514;43.538;-5.708;2023-04-15T14:02:32;25.20;90.80
60234;DHT22;49514;43.538;-5.708;2023-04-15T14:04:59;25.40;90.50
60234;DHT22;49514;43.538;-5.708;2023-04-15T14:07:28;25.50;90.40
60234;DHT22;49514;43.538;-5.708;2023-04-15T14:09:55;25.20;90.50
60234;DHT22;49514;43.538;-5.708;2023-04-15T14:12:22;25.10;90.70
60234;DHT22;49514;43.538;-5.708;2023-04-15T14:14:48;25.10;90.70
60234;DHT22;49514;43.538;-5.708;2023-04-15T14:17:15;25.00;91.00
60234;DHT22;49514;43.538;-5.708;2023-04-15T14:19:42;25.00;90.90
60234;DHT22;49514;43.538;-5.708;2023-04-15T14:22:09;25.00;90.40
60234;DHT22;49514;43.538;-5.708;2023-04-15T14:24:36;24.90;90.90
60234;DHT22;49514;43.538;-5.708;2023-04-15T14:27:03;24.90;90.90
60234;DHT22;49514;43.538;-5.708;2023-04-15T14:29:30;24.80;90.20
60234;DHT22;49514;43.538;-5.708;2023-04-15T14:31:56;24.60;90.40
60234;DHT22;49514;43.538;-5.708;2023-04-15T14:34:24;24.40;90.90
60234;DHT22;49514;43.538;-5.708;2023-04-15T14:36:51;24.10;91.10
60234;DHT22;49514;43.538;-5.708;2023-04-15T14:39:21;23.80;91.40
60234;DHT22;49514;43.538;-5.708;2023-04-15T14:41:48;23.50;91.80
60234;DHT22;49514;43.538;-5.708;2023-04-15T14:44:15;23.30;92.30
60234;DHT22;49514;43.538;-5.708;2023-04-15T14:46:41;23.10;92.80
60234;DHT22;49514;43.538;-5.708;2023-04-15T14:49:08;22.80;93.00
60234;DHT22;49514;43.538;-5.708;2023-04-15T14:51:35;22.70;94.40
60234;DHT22;49514;43.538;-5.708;2023-04-15T14:54:01;22.40;95.40
60234;DHT22;49514;43.538;-5.708;2023-04-15T14:56:28;22.40;96.40
60234;DHT22;49514;43.538;-5.708;2023-04-15T14:58:55;22.20;96.70
60234;DHT22;49514;43.538;-5.708;2023-04-15T15:01:22;22.10;97.10
60234;DHT22;49514;43.538;-5.708;2023-04-15T15:03:48;22.00;97.70
60234;DHT22;49514;43.538;-5.708;2023-04-15T15:06:15;21.70;98.20
60234;DHT22;49514;43.538;-5.708;2023-04-15T15:08:42;21.70;98.10
60234;DHT22;49514;43.538;-5.708;2023-04-15T15:11:08;21.60;98.40
60234;DHT22;49514;43.538;-5.708;2023-04-15T15:13:37;21.60;98.80
60234;DHT22;49514;43.538;-5.708;2023-04-15T15:16:05;21.70;99.10
60234;DHT22;49514;43.538;-5.708;2023-04-15T15:18:31;21.80;99.20
60234;DHT22;49514;43.538;-5.708;2023-04-15T15:20:58;21.70;99.60
60234;DHT22;49514;43.538;-5.708;2023-04-15T15:23:25;21.80;99.30
60234;DHT22;49514;43.538;-5.708;2023-04-15T15:25:51;21.80;98.60
60234;DHT22;49514;43.538;-5.708;2023-04-15T15:28:18;21.70;98.30
60234;DHT22;49514;43.538;-5.708;2023-04-15T15:30:47;21.60;98.50
60234;DHT22;49514;43.538;-5.708;2023-04-15T15:33:13;21.60;98.30
60234;DHT22;49514;43.538;-5.708;2023-04-15T15:35:40;21.40;98.40
60234;DHT22;49514;43.538;-5.708;2023-04-15T15:38:09;21.40;98.40